createdAt,value
2024-05-09T00:00:39.794Z,91208.19
2024-05-09T00:03:25.890Z,91204.41
2024-05-09T00:06:10.988Z,91205.59
2024-05-09T00:08:55.887Z,91209.38
2024-05-09T00:11:41.127Z,91207.09
2024-05-09T00:14:26.124Z,91204.13
2024-05-09T00:17:11.354Z,91206.34
2024-05-09T00:19:56.297Z,91207.88
2024-05-09T00:22:41.311Z,91206.88
2024-05-09T00:25:26.298Z,91206.34
2024-05-09T00:28:11.316Z,91203.59
2024-05-09T00:30:56.455Z,91206.38
2024-05-09T00:33:41.370Z,91204.19
2024-05-09T00:36:26.288Z,91211.38
2024-05-09T00:39:11.272Z,91202.84
2024-05-09T00:41:56.944Z,91205.13
2024-05-09T00:44:42.050Z,91206.38
2024-05-09T00:47:27.367Z,91202.16
2024-05-09T00:50:19.099Z,91201.44
2024-05-09T00:53:08.224Z,91207.72
2024-05-09T00:55:53.161Z,91202.75
2024-05-09T00:58:38.199Z,91194.78
2024-05-09T01:01:23.296Z,91198.03
2024-05-09T01:04:08.443Z,91199.25
2024-05-09T01:06:53.838Z,91202.03
2024-05-09T01:09:38.821Z,91193.56
2024-05-09T01:12:23.947Z,91193.81
2024-05-09T01:15:08.963Z,91196.81
2024-05-09T01:17:54.103Z,91199.56
2024-05-09T01:20:42.885Z,91192.31
2024-05-09T01:23:30.199Z,91195.06
2024-05-09T01:26:15.559Z,91194.31
2024-05-09T01:29:00.691Z,91192.31
2024-05-09T01:31:45.559Z,91194.06
2024-05-09T01:34:30.633Z,91199.34
2024-05-09T01:37:15.705Z,91191.13
2024-05-09T01:40:00.887Z,91191.84
2024-05-09T01:42:45.683Z,91197.63
2024-05-09T01:45:30.768Z,91197.38
2024-05-09T01:48:16.072Z,91199.66
2024-05-09T01:51:00.953Z,91191.94
2024-05-09T01:53:45.876Z,91193.47
2024-05-09T01:56:30.945Z,91191.50
2024-05-09T01:59:15.818Z,91187.75
2024-05-09T02:02:01.048Z,91191.97
2024-05-09T02:04:46.543Z,91187.72
2024-05-09T02:07:31.550Z,91185.25
2024-05-09T02:10:23.341Z,91180.81
2024-05-09T02:13:14.799Z,91182.06
2024-05-09T02:15:59.961Z,91185.06
2024-05-09T02:18:45.268Z,91188.81
2024-05-09T02:21:30.234Z,91188.81
2024-05-09T02:24:15.262Z,91187.31
2024-05-09T02:27:00.283Z,91177.13
2024-05-09T02:29:45.390Z,91178.38
2024-05-09T02:32:30.703Z,91183.84
2024-05-09T02:35:16.077Z,91173.41
2024-05-09T02:38:01.073Z,91162.69
2024-05-09T02:40:46.159Z,91162.41
2024-05-09T02:43:31.082Z,91167.66
2024-05-09T02:46:16.027Z,91168.16
2024-05-09T02:49:01.341Z,91170.91
2024-05-09T02:51:46.665Z,91165.47
2024-05-09T02:54:31.755Z,91164.75
2024-05-09T02:57:16.853Z,91167.44
2024-05-09T03:00:01.836Z,91167.19
2024-05-09T03:02:47.137Z,91172.16
2024-05-09T03:05:32.228Z,91169.44
2024-05-09T03:08:17.724Z,91164.72
2024-05-09T03:11:02.632Z,91163.47
2024-05-09T03:13:47.785Z,91167.94
2024-05-09T03:16:32.902Z,91159.22
2024-05-09T03:19:18.194Z,91166.97
2024-05-09T03:22:03.636Z,91162.72
2024-05-09T03:24:48.617Z,91166.72
2024-05-09T03:27:33.594Z,91161.00
2024-05-09T03:30:26.108Z,91157.25
2024-05-09T03:33:21.092Z,91161.72
2024-05-09T03:36:13.336Z,91166.72
2024-05-09T03:38:58.440Z,91173.44
2024-05-09T03:41:43.519Z,91164.72
2024-05-09T03:44:28.477Z,91167.47
2024-05-09T03:47:13.382Z,91178.44
2024-05-09T03:49:58.365Z,91167.72
2024-05-09T03:52:43.445Z,91173.19
2024-05-09T03:55:28.484Z,91176.72
2024-05-09T03:58:13.565Z,91178.69
2024-05-09T04:00:58.501Z,91177.69
2024-05-09T04:03:43.752Z,91180.66
2024-05-09T04:06:28.889Z,91180.69
2024-05-09T04:09:14.008Z,91188.38
2024-05-09T04:11:59.110Z,91177.41
2024-05-09T04:14:44.107Z,91184.66
2024-05-09T04:17:29.559Z,91183.44
2024-05-09T04:20:24.290Z,91176.47
2024-05-09T04:23:18.418Z,91186.41
2024-05-09T04:26:03.393Z,91188.91
2024-05-09T04:28:48.302Z,91191.88
2024-05-09T04:31:33.250Z,91188.66
2024-05-09T04:34:18.333Z,91192.63
2024-05-09T04:37:03.402Z,91195.38
2024-05-09T04:39:48.303Z,91193.41
2024-05-09T04:42:33.370Z,91196.13
2024-05-09T04:45:18.366Z,91205.84
2024-05-09T04:48:03.885Z,91199.31
2024-05-09T04:50:49.448Z,91204.63
2024-05-09T04:53:34.589Z,91204.34
2024-05-09T04:56:19.742Z,91205.34
2024-05-09T04:59:04.728Z,91206.09
2024-05-09T05:01:49.877Z,91214.81
2024-05-09T05:04:34.894Z,91198.88
2024-05-09T05:07:19.901Z,91221.03
2024-05-09T05:10:05.950Z,91216.31
2024-05-09T05:12:51.234Z,91212.31
2024-05-09T05:15:36.189Z,91210.34
2024-05-09T05:18:21.381Z,91216.81
2024-05-09T05:21:06.763Z,91213.06
2024-05-09T05:23:51.819Z,91215.81
2024-05-09T05:26:36.918Z,91220.28
2024-05-09T05:29:22.017Z,91216.28
2024-05-09T05:32:07.138Z,91210.78
2024-05-09T05:34:52.513Z,91219.44
2024-05-09T05:37:37.490Z,91211.63
2024-05-09T05:40:28.680Z,91205.53
2024-05-09T05:43:21.026Z,91207.97
2024-05-09T05:46:06.199Z,91213.63
2024-05-09T05:48:51.283Z,91208.75
2024-05-09T05:51:36.377Z,91215.84
2024-05-09T05:54:21.537Z,91213.06
2024-05-09T05:57:06.604Z,91208.22
2024-05-09T05:59:51.781Z,91214.69
2024-05-09T06:02:36.982Z,91213.16
2024-05-09T06:05:22.447Z,91209.56
2024-05-09T06:08:07.991Z,91206.22
2024-05-09T06:10:53.109Z,91212.97
2024-05-09T06:13:38.123Z,91209.97
2024-05-09T06:16:23.002Z,91201.34
2024-05-09T06:19:08.214Z,91200.03
2024-05-09T06:21:53.065Z,91199.31
2024-05-09T06:24:38.206Z,91204.91
2024-05-09T06:27:23.291Z,91203.13
2024-05-09T06:30:12.161Z,91205.06
2024-05-09T06:33:02.116Z,91202.38
2024-05-09T06:35:47.169Z,91203.19
2024-05-09T06:38:32.167Z,91195.31
2024-05-09T06:41:17.228Z,91196.69
2024-05-09T06:44:02.180Z,91203.41
2024-05-09T06:46:47.356Z,91196.75
2024-05-09T06:49:32.511Z,91204.16
2024-05-09T06:52:17.430Z,91204.44
2024-05-09T06:55:02.540Z,91203.03
2024-05-09T06:57:47.449Z,91207.38
2024-05-09T07:00:38.782Z,91203.38
2024-05-09T07:03:26.318Z,91208.34
2024-05-09T07:06:11.202Z,91203.00
2024-05-09T07:08:56.070Z,91199.50
2024-05-09T07:11:41.258Z,91196.34
2024-05-09T07:14:26.300Z,91191.38
2024-05-09T07:17:11.528Z,91191.91
2024-05-09T07:19:56.369Z,91190.31
2024-05-09T07:22:41.328Z,91183.22
2024-05-09T07:25:26.214Z,91194.38
2024-05-09T07:28:11.445Z,91187.78
2024-05-09T07:30:56.590Z,91188.53
2024-05-09T07:33:41.735Z,91187.06
2024-05-09T07:36:26.713Z,91185.28
2024-05-09T07:39:11.690Z,91181.84
2024-05-09T07:41:56.913Z,91188.03
2024-05-09T07:44:46.795Z,91181.03
2024-05-09T07:48:57.463Z,91171.66
2024-05-09T07:52:32.395Z,91177.59
2024-05-09T07:53:45.820Z,91188.53
2024-05-09T07:56:34.530Z,91183.13
2024-05-09T07:59:19.959Z,91174.63
2024-05-09T08:02:05.008Z,91175.03
2024-05-09T08:04:50.536Z,91169.97
2024-05-09T08:07:35.397Z,91174.34
2024-05-09T08:10:24.532Z,91168.78
2024-05-09T08:13:12.303Z,91169.41
2024-05-09T08:15:57.678Z,91163.78
2024-05-09T08:18:42.739Z,91159.81
2024-05-09T08:21:27.775Z,91153.72
2024-05-09T08:24:12.783Z,91156.84
2024-05-09T08:26:57.690Z,91153.44
2024-05-09T08:29:42.723Z,91147.78
2024-05-09T08:32:27.844Z,91149.06
2024-05-09T08:35:13.263Z,91136.81
2024-05-09T08:37:58.598Z,91144.50
2024-05-09T08:40:44.404Z,91148.66
2024-05-09T08:43:29.757Z,91142.63
2024-05-09T08:46:14.870Z,91146.72
2024-05-09T08:48:59.996Z,91143.16
2024-05-09T08:51:45.478Z,91137.34
2024-05-09T08:54:30.557Z,91137.53
2024-05-09T08:57:15.656Z,91137.72
2024-05-09T09:00:00.700Z,91136.44
2024-05-09T09:02:45.816Z,91128.00
2024-05-09T09:05:30.939Z,91124.69
2024-05-09T09:08:16.226Z,91125.19
2024-05-09T09:11:01.347Z,91124.63
2024-05-09T09:13:46.188Z,91127.47
2024-05-09T09:16:31.355Z,91119.91
2024-05-09T09:19:16.782Z,91110.50
2024-05-09T09:22:02.173Z,91111.50
2024-05-09T09:24:47.396Z,91109.50
2024-05-09T09:27:32.417Z,91106.94
2024-05-09T09:30:31.401Z,91112.66
2024-05-09T09:33:21.793Z,91111.56
2024-05-09T09:36:08.978Z,91109.22
2024-05-09T09:38:55.815Z,91100.50
2024-05-09T09:41:40.912Z,91103.09
2024-05-09T09:44:25.818Z,91100.28
2024-05-09T09:47:10.997Z,91097.50
2024-05-09T09:49:55.917Z,91097.53
2024-05-09T09:52:40.881Z,91097.16
2024-05-09T09:55:25.982Z,91097.31
2024-05-09T09:58:13.529Z,91096.25
2024-05-09T10:00:59.727Z,91091.94
2024-05-09T10:03:44.847Z,91089.34
2024-05-09T10:06:31.399Z,91087.59
2024-05-09T10:09:16.611Z,91095.09
2024-05-09T10:12:01.589Z,91086.56
2024-05-09T10:14:46.690Z,91077.09
2024-05-09T10:17:31.814Z,91074.78
2024-05-09T10:20:21.919Z,91070.56
2024-05-09T10:23:10.281Z,91074.41
2024-05-09T10:25:55.388Z,91063.97
2024-05-09T10:28:40.331Z,91062.22
2024-05-09T10:31:25.367Z,91074.50
2024-05-09T10:34:10.436Z,91067.44
2024-05-09T10:36:56.059Z,91071.44
2024-05-09T10:39:41.388Z,91066.22
2024-05-09T10:42:26.506Z,91060.22
2024-05-09T10:45:11.461Z,91061.56
2024-05-09T10:47:56.783Z,91063.22
2024-05-09T10:50:42.179Z,91064.50
2024-05-09T10:53:27.160Z,91054.22
2024-05-09T10:56:12.513Z,91054.19
2024-05-09T10:58:57.427Z,91055.69
2024-05-09T11:01:42.668Z,91056.72
2024-05-09T11:04:27.717Z,91055.13
2024-05-09T11:07:12.794Z,91044.38
2024-05-09T11:09:57.876Z,91048.53
2024-05-09T11:12:42.762Z,91036.09
2024-05-09T11:15:27.854Z,91040.03
2024-05-09T11:18:13.243Z,91044.91
2024-05-09T11:20:58.355Z,91031.13
2024-05-09T11:23:43.410Z,91033.97
2024-05-09T11:26:28.420Z,91031.25
2024-05-09T11:29:15.663Z,91033.09
2024-05-09T11:32:02.110Z,91034.13
2024-05-09T11:34:46.983Z,91027.94
2024-05-09T11:37:34.023Z,91030.06
2024-05-09T11:40:25.576Z,91018.00
2024-05-09T11:43:17.190Z,91014.00
2024-05-09T11:46:02.420Z,91005.13
2024-05-09T11:48:48.011Z,91012.06
2024-05-09T11:51:33.354Z,91004.91
2024-05-09T11:54:18.418Z,91010.47
2024-05-09T11:57:03.433Z,90998.25
2024-05-09T11:59:48.529Z,90998.47
2024-05-09T12:02:33.897Z,90996.53
2024-05-09T12:05:19.500Z,90996.22
2024-05-09T12:08:04.719Z,90994.81
2024-05-09T12:10:49.931Z,90990.66
2024-05-09T12:13:35.255Z,90996.63
2024-05-09T12:16:20.857Z,90996.19
2024-05-09T12:19:06.343Z,90991.25
2024-05-09T12:21:51.290Z,90986.47
2024-05-09T12:24:36.327Z,90980.41
2024-05-09T12:27:21.360Z,90986.41
2024-05-09T12:30:08.948Z,90980.59
2024-05-09T12:32:56.436Z,90974.50
2024-05-09T12:35:44.282Z,90971.22
2024-05-09T12:38:31.435Z,90971.22
2024-05-09T12:41:16.583Z,90975.84
2024-05-09T12:44:01.559Z,90980.41
2024-05-09T12:46:46.490Z,90965.09
2024-05-09T12:49:31.778Z,90963.28
2024-05-09T12:52:17.226Z,90963.44
2024-05-09T12:55:02.274Z,90966.53
2024-05-09T12:57:47.311Z,90968.78
2024-05-09T13:00:34.277Z,90964.53
2024-05-09T13:03:20.175Z,90963.03
2024-05-09T13:06:05.470Z,90951.88
2024-05-09T13:08:50.533Z,90955.88
2024-05-09T13:11:35.689Z,90951.16
2024-05-09T13:14:20.626Z,90951.66
2024-05-09T13:17:05.666Z,90954.34
2024-05-09T13:19:50.646Z,90952.81
2024-05-09T13:22:35.748Z,90948.09
2024-05-09T13:25:20.833Z,90946.19
2024-05-09T13:28:06.083Z,90941.13
2024-05-09T13:30:51.590Z,90938.63
2024-05-09T13:33:36.646Z,90940.22
2024-05-09T13:36:21.579Z,90943.16
2024-05-09T13:39:06.474Z,90934.91
2024-05-09T13:41:51.667Z,90931.94
2024-05-09T13:44:36.796Z,90924.53
2024-05-09T13:47:21.721Z,90924.47
2024-05-09T13:50:09.096Z,90918.72
2024-05-09T13:52:56.535Z,90919.69
2024-05-09T13:55:41.615Z,90918.84
2024-05-09T13:58:26.843Z,90918.56
2024-05-09T14:01:11.961Z,90911.41
2024-05-09T14:03:57.127Z,90912.81
2024-05-09T14:06:42.548Z,90907.22
2024-05-09T14:09:27.578Z,90910.03
2024-05-09T14:12:12.754Z,90912.78
2024-05-09T14:14:57.723Z,90906.66
2024-05-09T14:17:42.952Z,90905.41
2024-05-09T14:20:31.453Z,90903.31
2024-05-09T14:23:17.546Z,90900.72
2024-05-09T14:26:02.667Z,90895.19
2024-05-09T14:28:47.715Z,90881.63
2024-05-09T14:31:34.841Z,90883.88
2024-05-09T14:34:20.826Z,90880.50
2024-05-09T14:37:06.069Z,90884.63
2024-05-09T14:39:51.214Z,90873.44
2024-05-09T14:42:36.177Z,90880.38
2024-05-09T14:45:21.247Z,90887.06
2024-05-09T14:48:06.410Z,90878.84
2024-05-09T14:50:51.404Z,90880.03
2024-05-09T14:53:36.393Z,90869.63
2024-05-09T14:56:21.464Z,90882.47
2024-05-09T14:59:06.701Z,90861.69
2024-05-09T15:01:51.806Z,90868.75
2024-05-09T15:04:36.992Z,90867.81
2024-05-09T15:07:21.991Z,90867.09
2024-05-09T15:10:13.508Z,90872.38
2024-05-09T15:13:01.778Z,90872.22
2024-05-09T15:15:46.810Z,90865.03
2024-05-09T15:18:31.924Z,90870.94
2024-05-09T15:21:17.410Z,90869.91
2024-05-09T15:24:02.335Z,90871.69
2024-05-09T15:26:47.426Z,90873.88
2024-05-09T15:29:32.467Z,90869.78
2024-05-09T15:32:17.444Z,90867.97
2024-05-09T15:35:02.559Z,90867.38
2024-05-09T15:37:47.467Z,90868.91
2024-05-09T15:40:39.076Z,90871.41
2024-05-09T15:43:25.887Z,90872.00
2024-05-09T15:46:11.204Z,90865.69
2024-05-09T15:48:56.292Z,90866.72
2024-05-09T15:51:41.349Z,90857.59
2024-05-09T15:54:26.343Z,90866.41
2024-05-09T15:57:11.452Z,90862.16
2024-05-09T15:59:56.380Z,90868.47
2024-05-09T16:02:41.639Z,90866.00
2024-05-09T16:05:27.211Z,90864.66
2024-05-09T16:08:12.542Z,90864.50
2024-05-09T16:10:57.875Z,90867.66
2024-05-09T16:13:43.163Z,90866.75
2024-05-09T16:16:28.376Z,90865.69
2024-05-09T16:19:13.441Z,90856.59
2024-05-09T16:21:59.116Z,90863.59
2024-05-09T16:24:44.153Z,90865.69
2024-05-09T16:27:29.161Z,90867.41
2024-05-09T16:30:21.305Z,90864.38
2024-05-09T16:33:13.134Z,90870.44
2024-05-09T16:35:58.434Z,90870.03
2024-05-09T16:38:43.561Z,90870.31
2024-05-09T16:41:28.554Z,90862.44
2024-05-09T16:44:13.632Z,90865.72
2024-05-09T16:46:58.693Z,90861.66
2024-05-09T16:49:43.556Z,90862.41
2024-05-09T16:52:28.601Z,90869.94
2024-05-09T16:55:13.837Z,90869.75
2024-05-09T16:57:58.911Z,90870.19
2024-05-09T17:00:44.686Z,90864.84
2024-05-09T17:03:29.663Z,90866.03
2024-05-09T17:06:14.617Z,90871.38
2024-05-09T17:09:08.118Z,90871.22
2024-05-09T17:11:56.814Z,90880.56
2024-05-09T17:14:41.981Z,90871.69
2024-05-09T17:17:27.226Z,90875.41
2024-05-09T17:20:22.586Z,90877.44
2024-05-09T17:23:14.542Z,90877.31
2024-05-09T17:25:59.704Z,90885.56
2024-05-09T17:28:44.701Z,90888.53
2024-05-09T17:31:30.068Z,90894.56
2024-05-09T17:34:15.506Z,90890.53
2024-05-09T17:37:01.023Z,90890.38
2024-05-09T17:39:46.216Z,90893.84
2024-05-09T17:42:31.155Z,90896.09
2024-05-09T17:45:16.185Z,90902.81
2024-05-09T17:48:01.696Z,90900.13
2024-05-09T17:50:47.236Z,90909.41
2024-05-09T17:53:32.747Z,90916.25
2024-05-09T17:56:17.879Z,90909.44
2024-05-09T17:59:02.961Z,90907.59
2024-05-09T18:01:48.072Z,90910.38
2024-05-09T18:04:33.834Z,90908.91
2024-05-09T18:07:19.170Z,90923.34
2024-05-09T18:10:06.064Z,90920.97
2024-05-09T18:12:52.803Z,90923.53
2024-05-09T18:15:38.338Z,90935.38
2024-05-09T18:18:24.006Z,90938.13
2024-05-09T18:21:08.823Z,90940.75
2024-05-09T18:23:55.497Z,90950.38
2024-05-09T18:26:42.192Z,90947.22
2024-05-09T18:29:27.182Z,90946.28
2024-05-09T18:32:12.194Z,90946.63
2024-05-09T18:34:57.326Z,90946.97
2024-05-09T18:37:42.245Z,90950.81
2024-05-09T18:40:33.122Z,90951.53
2024-05-09T18:43:28.479Z,90960.03
2024-05-09T18:46:16.544Z,90958.94
2024-05-09T18:49:01.715Z,90965.91
2024-05-09T18:51:46.646Z,90966.97
2024-05-09T18:54:31.657Z,90969.38
2024-05-09T18:57:16.677Z,90963.41
2024-05-09T19:00:01.925Z,90969.41
2024-05-09T19:02:48.681Z,90970.59
2024-05-09T19:05:34.257Z,90981.03
2024-05-09T19:08:19.528Z,90988.81
2024-05-09T19:11:04.589Z,90996.34
2024-05-09T19:13:49.702Z,90991.72
2024-05-09T19:16:34.754Z,90993.25
2024-05-09T19:19:20.002Z,90994.44
2024-05-09T19:22:05.224Z,91010.72
2024-05-09T19:24:50.253Z,91013.00
2024-05-09T19:27:35.259Z,91018.59
2024-05-09T19:30:29.283Z,91025.28
2024-05-09T19:33:21.947Z,91023.00
2024-05-09T19:36:06.929Z,91028.34
2024-05-09T19:38:52.004Z,91029.28
2024-05-09T19:41:37.176Z,91034.59
2024-05-09T19:44:22.280Z,91045.88
2024-05-09T19:47:07.321Z,91038.13
2024-05-09T19:49:52.371Z,91041.75
2024-05-09T19:52:37.362Z,91049.97
2024-05-09T19:55:22.444Z,91049.38
2024-05-09T19:58:08.183Z,91053.31
2024-05-09T20:00:53.771Z,91054.66
2024-05-09T20:03:38.742Z,91058.75
2024-05-09T20:06:24.265Z,91064.09
2024-05-09T20:09:09.179Z,91060.28
2024-05-09T20:11:54.282Z,91059.97
2024-05-09T20:14:39.214Z,91063.72
2024-05-09T20:17:24.525Z,91065.72
2024-05-09T20:20:16.750Z,91069.97
2024-05-09T20:23:09.801Z,91070.41
2024-05-09T20:25:55.074Z,91072.84
2024-05-09T20:28:40.084Z,91081.66
2024-05-09T20:31:25.490Z,91082.00
2024-05-09T20:34:10.734Z,91078.59
2024-05-09T20:36:55.934Z,91083.38
2024-05-09T20:39:40.987Z,91082.97
2024-05-09T20:42:25.961Z,91084.53
2024-05-09T20:45:10.921Z,91089.31
2024-05-09T20:47:56.266Z,91093.34
2024-05-09T20:50:42.678Z,91090.81
2024-05-09T20:53:27.944Z,91091.03
2024-05-09T20:56:13.026Z,91100.28
2024-05-09T20:58:58.295Z,91097.38
2024-05-09T21:01:45.637Z,91094.00
2024-05-09T21:04:32.906Z,91095.81
2024-05-09T21:07:18.375Z,91104.63
2024-05-09T21:10:04.712Z,91103.34
2024-05-09T21:12:53.631Z,91104.81
2024-05-09T21:15:38.830Z,91105.13
2024-05-09T21:18:23.762Z,91102.47
2024-05-09T21:21:08.945Z,91103.53
2024-05-09T21:23:54.019Z,91101.53
2024-05-09T21:26:38.946Z,91107.47
2024-05-09T21:29:23.878Z,91106.97
2024-05-09T21:32:09.056Z,91109.44
2024-05-09T21:34:54.148Z,91111.00
2024-05-09T21:37:39.119Z,91104.34
2024-05-09T21:40:31.648Z,91106.97
2024-05-09T21:43:20.169Z,91098.72
2024-05-09T21:46:05.852Z,91112.72
2024-05-09T21:48:50.830Z,91106.56
2024-05-09T21:51:35.897Z,91114.00
2024-05-09T21:54:20.862Z,91116.34
2024-05-09T21:57:06.030Z,91115.88
2024-05-09T21:59:50.959Z,91120.66
2024-05-09T22:02:36.216Z,91130.19
2024-05-09T22:05:21.213Z,91124.97
2024-05-09T22:08:06.267Z,91124.56
2024-05-09T22:10:51.534Z,91125.66
2024-05-09T22:13:36.751Z,91129.72
2024-05-09T22:16:22.057Z,91131.16
2024-05-09T22:19:07.439Z,91133.28
2024-05-09T22:21:52.489Z,91129.25
2024-05-09T22:24:37.632Z,91130.75
2024-05-09T22:27:22.493Z,91132.47
2024-05-09T22:30:11.770Z,91146.94
2024-05-09T22:33:00.203Z,91146.72
2024-05-09T22:35:45.168Z,91144.78
2024-05-09T22:38:30.153Z,91139.78
2024-05-09T22:41:15.170Z,91138.75
2024-05-09T22:44:00.310Z,91143.66
2024-05-09T22:46:45.431Z,91141.13
2024-05-09T22:49:30.444Z,91150.91
2024-05-09T22:52:15.313Z,91147.69
2024-05-09T22:55:00.263Z,91138.09
2024-05-09T22:57:45.347Z,91148.75
2024-05-09T23:00:32.339Z,91143.66
2024-05-09T23:03:18.336Z,91147.25
2024-05-09T23:06:03.294Z,91143.06
2024-05-09T23:08:48.286Z,91146.06
2024-05-09T23:11:33.545Z,91147.31
2024-05-09T23:14:18.583Z,91141.97
2024-05-09T23:17:03.539Z,91147.03
2024-05-09T23:19:48.474Z,91146.13
2024-05-09T23:22:33.606Z,91143.88
2024-05-09T23:25:18.774Z,91143.09
2024-05-09T23:28:03.782Z,91151.41
2024-05-09T23:30:49.454Z,91149.63
2024-05-09T23:33:34.620Z,91141.50
2024-05-09T23:36:19.956Z,91148.75
2024-05-09T23:39:05.013Z,91142.50
2024-05-09T23:41:50.097Z,91137.50
2024-05-09T23:44:35.256Z,91141.00
2024-05-09T23:47:20.359Z,91143.22
2024-05-09T23:50:08.947Z,91141.78
2024-05-09T23:52:59.101Z,91130.59
2024-05-09T23:55:44.136Z,91130.50
2024-05-09T23:58:29.128Z,91129.88
